Time;durP1;ratioP1;P1;durP2;ratioP2;P2;SDS_P1;SDS_P2;PMS_P1;PMS_P2;Temp;Humidity;BMP_temperature;BMP_pressure;BME280_temperature;BME280_humidity;BME280_pressure;Samples;Min_cycle;Max_cycle;Signal;HPM_P1;HPM_P2
2022/10/19 00:01:13;;;;;;;14.20;12.47;;;16.60;99.90;;;;;;10322158;28;20219;-83
2022/10/19 00:06:18;;;;;;;14.03;12.93;;;16.60;99.90;;;;;;10306076;28;20247;-80
2022/10/19 00:11:20;;;;;;;14.67;12.70;;;16.50;99.90;;;;;;10367384;23;20230;-75
2022/10/19 00:16:25;;;;;;;16.10;13.70;;;16.40;99.90;;;;;;10371743;28;20293;-76
2022/10/19 00:21:28;;;;;;;18.00;12.90;;;16.40;99.90;;;;;;10371986;28;20220;-78
2022/10/19 00:26:30;;;;;;;15.93;13.00;;;16.30;99.90;;;;;;10372474;28;20565;-76
2022/10/19 00:31:34;;;;;;;14.47;12.87;;;16.20;99.90;;;;;;10372110;28;20249;-76
2022/10/19 00:36:38;;;;;;;18.40;14.97;;;16.20;99.90;;;;;;10377878;28;20194;-78
2022/10/19 00:41:41;;;;;;;17.03;14.10;;;16.10;99.90;;;;;;10379204;28;20222;-78
2022/10/19 00:46:47;;;;;;;16.43;14.43;;;16.10;99.90;;;;;;10379528;28;20213;-78
2022/10/19 00:51:51;;;;;;;16.37;14.83;;;16.20;99.90;;;;;;10380174;28;20207;-78
2022/10/19 00:56:57;;;;;;;15.03;13.50;;;16.10;99.90;;;;;;10379438;28;20206;-78
2022/10/19 01:02:04;;;;;;;14.97;13.67;;;16.10;99.90;;;;;;10367490;28;20221;-77
2022/10/19 01:07:07;;;;;;;15.23;13.83;;;16.10;99.90;;;;;;10370140;28;20282;-76
2022/10/19 01:12:20;;;;;;;18.77;17.10;;;16.20;99.90;;;;;;10371406;28;20230;-77
2022/10/19 01:17:34;;;;;;;20.73;18.90;;;16.20;99.90;;;;;;10370738;28;20197;-77
2022/10/19 01:22:50;;;;;;;23.13;19.30;;;16.30;99.90;;;;;;10370468;28;20239;-77
2022/10/19 01:28:12;;;;;;;20.10;18.10;;;16.40;99.90;;;;;;10369785;28;20237;-77
2022/10/19 01:33:29;;;;;;;21.90;19.70;;;16.50;99.90;;;;;;10368887;28;20221;-77
2022/10/19 01:38:37;;;;;;;20.23;18.23;;;16.60;99.90;;;;;;10370160;28;20590;-76
2022/10/19 01:43:45;;;;;;;21.10;18.53;;;16.70;99.90;;;;;;10370122;28;20710;-77
2022/10/19 01:48:54;;;;;;;23.20;18.70;;;16.70;99.90;;;;;;10369907;28;20218;-77
2022/10/19 01:54:00;;;;;;;25.23;20.67;;;16.80;99.90;;;;;;10369602;28;20239;-77
2022/10/19 01:59:07;;;;;;;22.83;18.83;;;16.80;99.90;;;;;;10369825;28;20195;-77
2022/10/19 02:04:13;;;;;;;25.47;21.27;;;16.80;99.90;;;;;;10369197;28;20681;-77
2022/10/19 02:09:17;;;;;;;27.60;22.93;;;16.90;99.90;;;;;;10368869;28;20225;-77
2022/10/19 02:14:24;;;;;;;24.70;22.00;;;16.90;99.90;;;;;;10357352;28;20232;-76
2022/10/19 02:19:28;;;;;;;30.73;25.43;;;16.90;99.90;;;;;;10377690;28;20197;-77
2022/10/19 02:24:30;;;;;;;32.43;25.20;;;17.00;99.90;;;;;;10378135;28;20248;-76
2022/10/19 02:29:33;;;;;;;40.50;28.77;;;17.00;99.90;;;;;;10376159;28;20681;-75
2022/10/19 02:34:37;;;;;;;35.57;27.00;;;17.00;99.90;;;;;;10377598;28;20225;-79
2022/10/19 02:39:39;;;;;;;33.53;26.00;;;17.00;99.90;;;;;;10377798;28;20187;-79
2022/10/19 02:44:50;;;;;;;28.87;25.30;;;17.00;99.90;;;;;;10377247;28;20219;-76
2022/10/19 02:49:53;;;;;;;37.23;25.57;;;17.00;99.90;;;;;;10375719;28;20208;-76
2022/10/19 02:54:56;;;;;;;38.23;25.83;;;17.00;99.90;;;;;;10375402;28;20222;-77
2022/10/19 02:59:58;;;;;;;28.60;22.00;;;17.00;99.90;;;;;;10376539;28;20595;-77
2022/10/19 03:05:02;;;;;;;27.23;20.67;;;17.10;99.90;;;;;;10376319;28;20214;-76
2022/10/19 03:10:04;;;;;;;30.13;23.40;;;17.10;99.90;;;;;;10376198;28;20210;-76
2022/10/19 03:15:07;;;;;;;32.27;23.40;;;17.10;99.90;;;;;;10375696;28;20631;-76
2022/10/19 03:20:11;;;;;;;38.33;23.40;;;17.00;99.90;;;;;;10375254;28;20178;-75
2022/10/19 03:25:14;;;;;;;33.90;23.80;;;17.10;99.90;;;;;;10374412;28;20183;-75
2022/10/19 03:30:16;;;;;;;32.07;24.73;;;17.10;99.90;;;;;;10375365;28;20230;-76
2022/10/19 03:35:19;;;;;;;35.30;25.10;;;17.10;99.90;;;;;;10375088;28;20191;-78
2022/10/19 03:40:21;;;;;;;31.80;23.67;;;17.10;99.90;;;;;;10374123;28;20205;-75
2022/10/19 03:45:23;;;;;;;32.87;25.10;;;17.10;99.90;;;;;;10373105;28;20662;-76
2022/10/19 03:50:26;;;;;;;34.47;24.87;;;17.00;99.90;;;;;;10374328;28;20209;-76
2022/10/19 03:55:30;;;;;;;31.93;25.70;;;17.10;99.90;;;;;;10374452;28;20270;-76
2022/10/19 04:00:32;;;;;;;37.03;25.87;;;17.00;99.90;;;;;;10374404;28;20179;-76
2022/10/19 04:05:35;;;;;;;35.80;26.70;;;17.00;99.90;;;;;;10373970;28;20219;-76
2022/10/19 04:10:37;;;;;;;35.50;26.97;;;17.00;99.90;;;;;;10373746;28;20215;-78
2022/10/19 04:15:39;;;;;;;41.17;25.90;;;17.00;99.90;;;;;;10375226;28;20193;-78
2022/10/19 04:20:43;;;;;;;32.03;25.00;;;17.00;99.90;;;;;;10378827;28;20245;-78
2022/10/19 04:25:45;;;;;;;30.60;24.67;;;17.00;99.90;;;;;;10379482;28;20288;-78
2022/10/19 04:30:47;;;;;;;31.70;26.07;;;17.10;99.90;;;;;;10380642;28;20301;-78
2022/10/19 04:35:50;;;;;;;33.10;25.43;;;17.10;99.90;;;;;;10380177;28;20191;-79
2022/10/19 04:40:52;;;;;;;30.70;26.07;;;17.00;99.90;;;;;;10381086;28;20214;-79
2022/10/19 04:45:54;;;;;;;27.73;23.93;;;17.00;99.90;;;;;;10381281;28;20294;-76
2022/10/19 04:50:58;;;;;;;29.90;24.70;;;17.00;99.90;;;;;;10378195;28;20298;-79
2022/10/19 04:56:00;;;;;;;32.03;28.30;;;17.00;99.90;;;;;;10371832;28;20179;-76
2022/10/19 05:01:08;;;;;;;30.20;26.90;;;17.00;99.90;;;;;;10372037;28;20206;-77
2022/10/19 05:06:13;;;;;;;31.53;26.63;;;17.00;99.90;;;;;;10371869;28;20225;-76
2022/10/19 05:11:16;;;;;;;29.90;26.27;;;17.00;99.90;;;;;;10369922;28;20272;-76
2022/10/19 05:16:20;;;;;;;27.70;25.00;;;17.00;99.90;;;;;;10369500;28;20195;-77
2022/10/19 05:21:23;;;;;;;32.87;29.43;;;17.00;99.90;;;;;;10371092;28;20297;-77
2022/10/19 05:26:27;;;;;;;30.97;28.00;;;17.10;99.90;;;;;;10369868;28;20218;-79
2022/10/19 05:31:32;;;;;;;32.17;28.97;;;17.10;99.90;;;;;;10370542;28;20754;-80
2022/10/19 05:36:37;;;;;;;32.80;29.70;;;17.10;99.90;;;;;;10372736;28;20229;-78
2022/10/19 05:41:40;;;;;;;31.90;29.00;;;17.10;99.90;;;;;;10374274;28;20214;-78
2022/10/19 05:46:43;;;;;;;31.43;28.43;;;17.10;99.90;;;;;;10372291;28;20289;-78
2022/10/19 05:51:46;;;;;;;31.47;28.67;;;17.10;99.90;;;;;;10373523;28;20222;-78
2022/10/19 05:56:48;;;;;;;30.63;27.60;;;17.10;99.90;;;;;;10375483;28;20205;-78
2022/10/19 06:01:50;;;;;;;30.87;28.07;;;17.10;99.90;;;;;;10372812;28;20211;-78
2022/10/19 06:06:54;;;;;;;30.50;27.70;;;17.10;99.90;;;;;;10375448;28;20198;-80
2022/10/19 06:11:56;;;;;;;30.47;27.67;;;17.10;99.90;;;;;;10374061;28;20226;-77
2022/10/19 06:16:58;;;;;;;27.53;25.03;;;17.10;99.90;;;;;;10373150;28;20626;-78
2022/10/19 06:22:01;;;;;;;26.70;24.40;;;17.10;99.90;;;;;;10373137;28;20215;-78
2022/10/19 06:27:05;;;;;;;26.60;24.23;;;17.10;99.90;;;;;;10368791;28;20285;-78
2022/10/19 06:32:07;;;;;;;24.83;22.67;;;17.10;99.90;;;;;;10369720;28;20546;-77
2022/10/19 06:37:10;;;;;;;24.60;22.57;;;17.10;99.90;;;;;;10371662;28;20203;-78
2022/10/19 06:42:12;;;;;;;23.73;21.73;;;17.20;99.90;;;;;;10377465;28;20238;-80
2022/10/19 06:47:15;;;;;;;23.57;21.37;;;17.20;99.90;;;;;;10371435;28;20297;-80
2022/10/19 06:52:19;;;;;;;22.30;20.20;;;17.20;99.90;;;;;;10369247;28;20210;-78
2022/10/19 06:57:21;;;;;;;22.53;20.63;;;17.30;99.90;;;;;;10370014;28;20218;-80
2022/10/19 07:02:23;;;;;;;25.33;20.80;;;17.30;99.90;;;;;;10381310;28;20277;-78
2022/10/19 07:07:26;;;;;;;22.30;20.10;;;17.30;99.90;;;;;;10381518;28;20241;-78
2022/10/19 07:12:29;;;;;;;24.53;22.33;;;17.40;99.90;;;;;;10383414;28;20222;-78
2022/10/19 07:17:31;;;;;;;23.40;21.40;;;17.40;99.90;;;;;;10378660;28;20187;-78
2022/10/19 07:22:35;;;;;;;22.70;20.70;;;17.40;99.90;;;;;;10378591;28;20692;-78
2022/10/19 07:27:39;;;;;;;27.43;24.90;;;17.50;99.90;;;;;;10380703;28;20285;-77
2022/10/19 07:32:41;;;;;;;21.07;19.10;;;17.50;99.90;;;;;;10382206;28;20226;-78
2022/10/19 07:37:44;;;;;;;19.17;17.40;;;17.60;99.90;;;;;;10374973;28;20229;-78
2022/10/19 07:42:46;;;;;;;17.60;15.90;;;17.70;99.90;;;;;;10378137;28;20229;-78
2022/10/19 07:47:48;;;;;;;17.93;16.43;;;17.80;99.90;;;;;;10377708;28;20219;-78
2022/10/19 07:52:53;;;;;;;18.67;16.80;;;17.90;99.90;;;;;;10377634;28;20223;-78
2022/10/19 07:57:55;;;;;;;17.50;15.93;;;18.00;99.90;;;;;;10377808;28;20195;-78
2022/10/19 08:02:57;;;;;;;16.13;14.70;;;18.00;99.90;;;;;;10377365;28;20593;-78
2022/10/19 08:08:00;;;;;;;15.33;14.00;;;18.10;99.90;;;;;;10376696;28;20210;-78
2022/10/19 08:13:03;;;;;;;15.73;14.47;;;18.20;99.90;;;;;;10378467;28;20540;-78
2022/10/19 08:18:05;;;;;;;16.90;15.50;;;18.30;99.90;;;;;;10373494;28;20282;-78
2022/10/19 08:23:08;;;;;;;15.70;14.50;;;18.40;99.90;;;;;;10375793;28;20305;-78
2022/10/19 08:28:10;;;;;;;15.33;14.13;;;18.40;99.90;;;;;;10376096;28;20241;-78
2022/10/19 08:33:14;;;;;;;14.37;13.17;;;18.40;99.90;;;;;;10377657;28;20671;-78
2022/10/19 08:38:17;;;;;;;15.53;14.33;;;18.40;99.90;;;;;;10376125;28;20272;-78
2022/10/19 08:43:29;;;;;;;14.43;13.33;;;18.30;99.90;;;;;;10376041;28;20214;-78
2022/10/19 08:48:35;;;;;;;14.77;13.37;;;18.40;99.90;;;;;;10375086;28;20218;-78
2022/10/19 08:53:49;;;;;;;14.30;13.03;;;18.40;99.90;;;;;;10375729;28;20310;-78
2022/10/19 08:59:12;;;;;;;13.07;11.97;;;18.50;99.90;;;;;;10377319;28;20515;-78
2022/10/19 09:04:21;;;;;;;13.60;12.47;;;18.40;99.90;;;;;;10373464;28;20696;-78
2022/10/19 09:09:28;;;;;;;13.00;11.87;;;18.50;99.90;;;;;;10354600;28;20214;-78
2022/10/19 09:14:35;;;;;;;11.57;10.67;;;18.40;99.90;;;;;;10372842;28;20222;-78
2022/10/19 09:19:37;;;;;;;11.30;10.40;;;18.30;99.90;;;;;;10380252;28;20665;-78
2022/10/19 09:24:44;;;;;;;13.33;12.03;;;18.40;99.90;;;;;;10364788;28;20233;-78
2022/10/19 09:29:53;;;;;;;12.20;11.20;;;18.40;99.90;;;;;;10375280;28;20605;-78
2022/10/19 09:35:01;;;;;;;12.63;11.73;;;18.30;99.90;;;;;;10370777;28;20223;-79
2022/10/19 09:40:06;;;;;;;12.40;11.10;;;18.40;99.90;;;;;;10368367;28;20190;-77
2022/10/19 09:45:16;;;;;;;11.80;10.80;;;18.40;99.90;;;;;;10370949;28;20210;-81
2022/10/19 09:50:20;;;;;;;10.00;9.30;;;18.40;99.90;;;;;;10367396;28;20317;-77
2022/10/19 09:55:28;;;;;;;11.47;10.57;;;18.30;99.90;;;;;;10369179;28;20226;-77
2022/10/19 10:00:37;;;;;;;10.67;9.87;;;18.30;99.90;;;;;;10354156;28;20645;-77
2022/10/19 10:05:40;;;;;;;10.07;9.37;;;18.30;99.90;;;;;;10368630;28;20218;-78
2022/10/19 10:10:46;;;;;;;8.87;8.03;;;18.30;99.90;;;;;;10370193;28;20597;-77
2022/10/19 10:15:50;;;;;;;8.40;7.90;;;18.30;99.90;;;;;;10370051;28;20205;-78
2022/10/19 10:20:59;;;;;;;8.03;7.53;;;18.30;99.90;;;;;;10368632;28;20276;-77
2022/10/19 10:26:04;;;;;;;8.10;7.60;;;18.30;99.90;;;;;;10369385;28;20662;-77
2022/10/19 10:31:09;;;;;;;7.57;7.17;;;18.30;99.90;;;;;;10368537;28;20244;-77
2022/10/19 10:36:12;;;;;;;8.83;6.73;;;18.40;99.90;;;;;;10375445;28;20199;-78
2022/10/19 10:41:17;;;;;;;7.80;7.30;;;18.40;99.90;;;;;;10377518;28;20360;-78
2022/10/19 10:46:24;;;;;;;8.97;8.37;;;18.40;99.90;;;;;;10377543;28;20191;-77
2022/10/19 10:51:33;;;;;;;7.73;7.23;;;18.50;99.90;;;;;;10375502;28;20223;-78
2022/10/19 10:56:39;;;;;;;7.00;6.50;;;18.60;99.90;;;;;;10378345;28;20221;-77
2022/10/19 11:01:45;;;;;;;8.07;7.37;;;18.70;99.90;;;;;;10381353;28;20264;-77
2022/10/19 11:06:53;;;;;;;7.27;6.67;;;18.80;99.90;;;;;;10374440;28;20230;-77
2022/10/19 11:12:01;;;;;;;7.20;6.70;;;18.80;99.90;;;;;;10377662;28;20238;-78
2022/10/19 11:17:07;;;;;;;7.77;7.17;;;18.90;99.90;;;;;;10380393;28;20201;-78
2022/10/19 11:22:18;;;;;;;7.03;6.53;;;19.00;99.90;;;;;;10382794;28;20217;-78
2022/10/19 11:27:36;;;;;;;8.23;6.30;;;19.10;99.90;;;;;;10379317;28;20199;-78
2022/10/19 11:33:00;;;;;;;8.10;7.37;;;19.20;99.90;;;;;;10377907;28;20218;-78
2022/10/19 11:38:13;;;;;;;7.20;6.60;;;19.20;99.90;;;;;;10374773;28;20206;-78
2022/10/19 11:43:23;;;;;;;7.13;6.63;;;19.20;99.90;;;;;;10378555;28;20297;-78
2022/10/19 11:48:35;;;;;;;6.63;6.23;;;19.20;99.90;;;;;;10376221;28;20244;-78
2022/10/19 11:53:49;;;;;;;6.57;6.17;;;19.30;99.90;;;;;;10377999;28;20219;-78
2022/10/19 11:58:59;;;;;;;7.43;6.83;;;19.40;99.90;;;;;;10378503;28;20193;-78
2022/10/19 12:04:28;;;;;;;7.20;6.70;;;19.40;99.90;;;;;;10376289;28;20215;-78
2022/10/19 12:09:42;;;;;;;6.60;6.03;;;19.40;99.90;;;;;;10373409;28;20249;-78
2022/10/19 12:14:49;;;;;;;6.40;5.97;;;19.40;99.90;;;;;;10367562;28;20226;-76
2022/10/19 12:19:56;;;;;;;7.23;6.80;;;19.40;99.90;;;;;;10370906;28;20191;-77
2022/10/19 12:25:01;;;;;;;7.00;6.60;;;19.50;99.90;;;;;;10373237;28;20297;-77
2022/10/19 12:30:09;;;;;;;7.83;7.33;;;19.60;99.90;;;;;;10371154;28;20769;-77
2022/10/19 12:35:31;;;;;;;6.73;6.33;;;19.70;99.90;;;;;;10351700;28;20219;-77
2022/10/19 12:40:40;;;;;;;8.77;8.03;;;19.60;99.90;;;;;;10351030;28;20206;-77
2022/10/19 12:45:49;;;;;;;8.50;7.80;;;19.50;99.90;;;;;;10376173;28;20287;-77
2022/10/19 12:51:12;;;;;;;7.50;7.00;;;19.40;99.90;;;;;;10377491;28;20230;-78
2022/10/19 12:56:20;;;;;;;7.63;7.13;;;19.20;99.90;;;;;;10377827;28;20198;-78
2022/10/19 13:01:27;;;;;;;7.50;7.00;;;19.10;99.90;;;;;;10394119;28;20226;-77
2022/10/19 13:06:33;;;;;;;7.87;7.37;;;18.90;99.90;;;;;;10364867;28;20214;-77
2022/10/19 13:11:37;;;;;;;9.50;8.70;;;18.90;99.90;;;;;;10368497;28;20265;-77
2022/10/19 13:16:57;;;;;;;7.90;7.40;;;18.80;99.90;;;;;;10367670;28;20233;-77
2022/10/19 13:22:26;;;;;;;7.77;7.27;;;18.70;99.90;;;;;;10368369;28;20229;-77
2022/10/19 13:27:37;;;;;;;9.13;8.43;;;18.70;99.90;;;;;;10377696;28;20214;-77
2022/10/19 13:32:43;;;;;;;8.07;7.57;;;18.60;99.90;;;;;;10368859;28;20222;-77
2022/10/19 13:37:45;;;;;;;8.40;7.67;;;18.60;99.90;;;;;;10369221;28;20210;-77
2022/10/19 13:42:58;;;;;;;8.30;7.63;;;18.50;99.90;;;;;;10369349;28;20272;-77
2022/10/19 13:48:09;;;;;;;7.83;7.30;;;18.50;99.90;;;;;;10377859;28;20204;-77
2022/10/19 13:53:29;;;;;;;10.30;9.20;;;18.50;99.90;;;;;;10368753;28;20736;-77
2022/10/19 13:59:04;;;;;;;9.87;8.97;;;18.40;99.90;;;;;;10352738;28;20276;-77
2022/10/19 14:04:29;;;;;;;8.27;7.60;;;18.40;99.90;;;;;;10334312;28;20218;-77
2022/10/19 14:10:02;;;;;;;6.80;6.30;;;18.40;99.90;;;;;;10368562;28;20206;-79
2022/10/19 14:15:30;;;;;;;13.40;11.67;;;18.30;99.90;;;;;;10366977;28;20240;-77
2022/10/19 14:20:36;;;;;;;7.90;7.30;;;18.40;99.90;;;;;;10324089;28;20234;-77
2022/10/19 14:25:38;;;;;;;7.13;6.53;;;18.30;99.90;;;;;;10364167;28;20252;-78
2022/10/19 14:30:41;;;;;;;7.07;6.70;;;18.30;99.90;;;;;;10409955;28;20218;-78
2022/10/19 14:35:51;;;;;;;7.10;6.50;;;18.30;99.90;;;;;;10391062;28;20194;-77
2022/10/19 14:40:54;;;;;;;7.43;7.03;;;18.30;99.90;;;;;;10367543;28;20221;-76
2022/10/19 14:46:13;;;;;;;7.43;7.03;;;18.20;99.90;;;;;;10367680;28;20198;-78
2022/10/19 14:51:32;;;;;;;7.37;6.77;;;18.20;99.90;;;;;;10368598;28;20706;-77
2022/10/19 14:56:39;;;;;;;7.50;7.10;;;18.20;99.90;;;;;;10384911;28;20274;-75
2022/10/19 15:01:49;;;;;;;7.67;7.17;;;18.10;99.90;;;;;;10368466;28;20719;-77
2022/10/19 15:06:53;;;;;;;8.93;8.33;;;18.10;99.90;;;;;;10367550;28;20199;-79
2022/10/19 15:11:58;;;;;;;7.47;6.97;;;18.10;99.90;;;;;;10369772;28;20298;-77
2022/10/19 15:17:02;;;;;;;10.20;9.40;;;18.10;99.90;;;;;;10375759;28;20250;-79
2022/10/19 15:22:16;;;;;;;8.20;7.70;;;18.10;99.90;;;;;;10377534;28;20218;-79
2022/10/19 15:27:21;;;;;;;8.97;8.27;;;18.10;99.90;;;;;;10375739;28;20321;-77
2022/10/19 15:32:25;;;;;;;8.10;7.60;;;18.10;99.90;;;;;;10374063;28;20280;-77
2022/10/19 15:37:28;;;;;;;8.70;8.20;;;18.10;99.90;;;;;;10375991;28;20559;-77
2022/10/19 15:42:37;;;;;;;9.43;8.83;;;18.00;99.90;;;;;;10375841;28;20690;-77
2022/10/19 15:48:01;;;;;;;8.80;8.10;;;18.00;99.90;;;;;;10377056;28;20195;-77
2022/10/19 15:53:04;;;;;;;7.00;6.60;;;17.90;99.90;;;;;;10376075;28;20228;-77
2022/10/19 15:58:06;;;;;;;9.50;8.80;;;17.90;99.90;;;;;;10371833;28;20190;-77
2022/10/19 16:03:11;;;;;;;7.00;6.50;;;17.80;99.90;;;;;;10371339;28;20215;-77
2022/10/19 16:08:15;;;;;;;8.33;7.83;;;17.80;99.90;;;;;;10371636;28;20281;-77
2022/10/19 16:13:17;;;;;;;8.77;8.27;;;17.70;99.90;;;;;;10371940;28;20768;-77
2022/10/19 16:18:19;;;;;;;7.60;7.10;;;17.60;99.90;;;;;;10372692;28;20593;-76
2022/10/19 16:23:22;;;;;;;8.97;8.27;;;17.40;99.90;;;;;;10375956;28;20245;-77
2022/10/19 16:28:24;;;;;;;9.37;8.73;;;17.30;99.90;;;;;;10375576;28;20234;-77
2022/10/19 16:33:26;;;;;;;9.37;8.57;;;17.20;99.90;;;;;;10366530;28;20596;-77
2022/10/19 16:38:30;;;;;;;9.63;8.93;;;17.10;99.90;;;;;;10362206;28;20285;-77
2022/10/19 16:43:32;;;;;;;10.47;9.47;;;17.00;99.90;;;;;;10364401;28;20211;-77
2022/10/19 16:48:35;;;;;;;12.47;11.57;;;16.80;99.90;;;;;;10356412;28;20202;-77
2022/10/19 16:53:39;;;;;;;11.50;10.60;;;16.70;99.90;;;;;;10359579;28;20237;-77
2022/10/19 16:58:41;;;;;;;8.73;8.13;;;16.70;99.90;;;;;;10353125;28;20218;-76
2022/10/19 17:03:44;;;;;;;11.27;10.37;;;16.60;99.90;;;;;;10369064;28;20298;-77
2022/10/19 17:08:48;;;;;;;11.60;10.70;;;16.50;99.90;;;;;;10391617;28;20205;-76
2022/10/19 17:13:52;;;;;;;10.53;9.57;;;16.50;99.90;;;;;;10382921;28;20302;-77
2022/10/19 17:18:55;;;;;;;10.43;9.80;;;16.50;99.90;;;;;;10372392;28;20194;-76
2022/10/19 17:24:00;;;;;;;12.00;11.00;;;16.40;99.90;;;;;;10370624;28;20238;-76
2022/10/19 17:29:03;;;;;;;10.93;9.80;;;16.30;99.90;;;;;;10370757;28;20570;-77
2022/10/19 17:34:06;;;;;;;11.77;10.60;;;16.30;99.90;;;;;;10370759;28;20217;-76
2022/10/19 17:39:13;;;;;;;11.07;10.27;;;16.20;99.90;;;;;;10369065;28;20264;-76
2022/10/19 17:44:16;;;;;;;12.13;11.10;;;16.20;99.90;;;;;;10370579;28;20226;-76
2022/10/19 17:49:18;;;;;;;12.50;10.60;;;16.20;99.90;;;;;;10370134;28;20214;-76
2022/10/19 17:54:21;;;;;;;10.97;10.27;;;16.20;99.90;;;;;;10369934;28;20242;-77
2022/10/19 17:59:23;;;;;;;10.90;10.27;;;16.10;99.90;;;;;;10370029;28;20817;-76
2022/10/19 18:04:25;;;;;;;12.90;11.90;;;16.00;99.90;;;;;;10378348;28;20304;-77
2022/10/19 18:09:29;;;;;;;11.80;11.00;;;16.00;99.90;;;;;;10386809;28;20225;-77
2022/10/19 18:14:31;;;;;;;12.17;11.27;;;16.00;99.90;;;;;;10392983;23;20226;-78
2022/10/19 18:19:33;;;;;;;13.37;11.40;;;15.90;99.90;;;;;;10387597;28;20210;-80
2022/10/19 18:24:36;;;;;;;11.00;10.10;;;15.90;99.90;;;;;;10332225;28;20219;-80
2022/10/19 18:29:38;;;;;;;12.80;11.80;;;15.90;99.90;;;;;;10333901;28;20846;-81
2022/10/19 18:34:40;;;;;;;12.87;11.87;;;15.80;99.90;;;;;;10332613;28;20655;-80
2022/10/19 18:39:44;;;;;;;11.33;10.20;;;15.80;99.90;;;;;;10350415;28;20195;-80
2022/10/19 18:44:46;;;;;;;13.33;12.00;;;15.70;99.90;;;;;;10373291;28;20232;-80
2022/10/19 18:49:48;;;;;;;12.87;11.97;;;15.70;99.90;;;;;;10371440;28;20214;-80
2022/10/19 18:54:51;;;;;;;11.63;10.90;;;15.70;99.90;;;;;;10372968;28;20214;-80
2022/10/19 18:59:53;;;;;;;11.60;10.60;;;15.70;99.90;;;;;;10382149;28;20194;-80
2022/10/19 19:04:56;;;;;;;13.10;11.80;;;15.60;99.90;;;;;;10380866;28;20769;-79
2022/10/19 19:09:59;;;;;;;12.53;11.40;;;15.60;99.90;;;;;;10381612;28;20670;-78
2022/10/19 19:15:01;;;;;;;11.63;10.83;;;15.60;99.90;;;;;;10377649;28;20713;-78
2022/10/19 19:20:04;;;;;;;12.20;11.30;;;15.60;99.90;;;;;;10373559;28;20202;-77
2022/10/19 19:25:08;;;;;;;11.70;10.70;;;15.60;99.90;;;;;;10372637;28;20218;-78
2022/10/19 19:30:11;;;;;;;11.80;10.80;;;15.60;99.90;;;;;;10378603;28;20293;-78
2022/10/19 19:35:13;;;;;;;11.53;10.73;;;15.60;99.90;;;;;;10363786;28;20592;-77
2022/10/19 19:40:16;;;;;;;10.80;10.00;;;15.70;99.90;;;;;;10377028;28;20199;-77
2022/10/19 19:45:18;;;;;;;12.90;10.50;;;15.70;99.90;;;;;;10354785;28;20232;-77
2022/10/19 19:50:20;;;;;;;10.30;9.43;;;15.70;99.90;;;;;;10360163;28;20301;-77
2022/10/19 19:55:24;;;;;;;12.40;10.03;;;15.70;99.90;;;;;;10373303;28;20702;-79
2022/10/19 20:00:26;;;;;;;10.33;9.53;;;15.70;99.90;;;;;;10381289;28;20199;-79
2022/10/19 20:05:28;;;;;;;10.53;9.73;;;15.60;99.90;;;;;;10374021;28;20238;-78
2022/10/19 20:10:31;;;;;;;11.20;9.80;;;15.70;99.90;;;;;;10379327;28;20229;-78
2022/10/19 20:15:36;;;;;;;11.50;10.60;;;15.70;99.90;;;;;;10382025;28;20230;-78
2022/10/19 20:20:40;;;;;;;23.37;20.87;;;15.60;99.90;;;;;;10379894;28;20186;-79
2022/10/19 20:25:43;;;;;;;11.73;10.80;;;15.60;99.90;;;;;;10384409;28;20219;-77
2022/10/19 20:30:45;;;;;;;12.37;11.27;;;15.50;99.90;;;;;;10377386;28;20709;-77
2022/10/19 20:35:47;;;;;;;12.43;11.40;;;15.50;99.90;;;;;;10376921;28;20297;-77
2022/10/19 20:40:53;;;;;;;12.17;11.30;;;15.40;99.90;;;;;;10376324;28;20195;-79
2022/10/19 20:46:01;;;;;;;11.77;10.60;;;15.30;99.90;;;;;;10378889;28;20221;-79
2022/10/19 20:51:14;;;;;;;12.30;11.20;;;15.30;99.90;;;;;;10376947;28;20210;-80
2022/10/19 20:56:20;;;;;;;11.80;10.90;;;15.30;99.90;;;;;;10377598;28;20683;-79
2022/10/19 21:01:23;;;;;;;16.10;14.60;;;15.20;99.90;;;;;;10378125;28;20202;-79
2022/10/19 21:06:27;;;;;;;12.10;11.30;;;15.10;99.90;;;;;;10376955;28;20273;-78
2022/10/19 21:11:32;;;;;;;13.33;12.27;;;15.00;99.90;;;;;;10389491;28;20214;-79
2022/10/19 21:16:36;;;;;;;14.03;13.00;;;15.00;99.90;;;;;;10371322;28;20226;-79
2022/10/19 21:21:40;;;;;;;13.27;12.17;;;14.90;99.90;;;;;;10377504;28;20247;-78
2022/10/19 21:26:44;;;;;;;13.37;12.40;;;14.90;99.90;;;;;;10378687;28;20280;-78
2022/10/19 21:31:47;;;;;;;14.77;13.20;;;14.90;99.90;;;;;;10397066;28;20253;-79
2022/10/19 21:36:56;;;;;;;13.67;12.43;;;14.80;99.90;;;;;;10361681;28;20642;-78
2022/10/19 21:41:59;;;;;;;13.37;12.27;;;14.90;99.90;;;;;;10371943;28;20262;-77
2022/10/19 21:47:01;;;;;;;12.17;11.27;;;14.80;99.90;;;;;;10383767;28;20305;-78
2022/10/19 21:52:04;;;;;;;15.53;12.13;;;14.90;99.90;;;;;;10397104;28;20226;-78
2022/10/19 21:57:07;;;;;;;13.27;12.07;;;14.80;99.90;;;;;;10400464;28;20214;-79
2022/10/19 22:02:09;;;;;;;12.70;11.40;;;14.80;99.90;;;;;;10384333;28;20210;-78
2022/10/19 22:07:11;;;;;;;13.30;12.30;;;14.70;99.90;;;;;;10378419;28;20233;-78
2022/10/19 22:12:14;;;;;;;12.53;11.53;;;14.70;99.90;;;;;;10374348;28;21005;-79
2022/10/19 22:17:16;;;;;;;11.20;10.20;;;14.70;99.90;;;;;;10379830;28;20260;-78
2022/10/19 22:22:18;;;;;;;11.90;10.90;;;14.70;99.90;;;;;;10393236;28;20198;-79
2022/10/19 22:27:22;;;;;;;12.67;11.50;;;14.70;99.90;;;;;;10393686;28;20689;-78
2022/10/19 22:32:24;;;;;;;13.37;10.67;;;14.60;99.90;;;;;;10396244;28;20234;-79
2022/10/19 22:37:35;;;;;;;11.83;10.63;;;14.60;99.90;;;;;;10403495;28;20225;-79
2022/10/19 22:42:38;;;;;;;14.03;10.47;;;14.60;99.90;;;;;;10395420;28;20190;-78
2022/10/19 22:47:40;;;;;;;11.87;10.87;;;14.50;99.90;;;;;;10405702;28;20194;-77
2022/10/19 22:52:42;;;;;;;14.07;12.87;;;14.50;99.90;;;;;;10377888;28;20244;-78
2022/10/19 22:57:46;;;;;;;12.70;11.60;;;14.40;99.90;;;;;;10390349;28;20205;-78
2022/10/19 23:02:48;;;;;;;13.40;12.30;;;14.40;99.90;;;;;;10393688;28;20194;-78
2022/10/19 23:07:50;;;;;;;11.67;10.67;;;14.40;99.90;;;;;;10384904;28;20229;-78
2022/10/19 23:12:54;;;;;;;12.90;11.70;;;14.40;99.90;;;;;;10412447;28;20601;-76
2022/10/19 23:17:57;;;;;;;19.33;11.70;;;14.40;99.90;;;;;;10375633;28;20710;-77
2022/10/19 23:22:59;;;;;;;12.27;11.10;;;14.40;99.90;;;;;;10376268;28;20210;-78
2022/10/19 23:28:03;;;;;;;14.47;11.83;;;14.50;99.90;;;;;;10377364;28;20199;-78
2022/10/19 23:33:05;;;;;;;12.00;11.10;;;14.50;99.90;;;;;;10377120;28;20217;-79
2022/10/19 23:38:07;;;;;;;11.60;10.70;;;14.40;99.90;;;;;;10379241;28;20574;-78
2022/10/19 23:43:10;;;;;;;12.07;10.77;;;14.40;99.90;;;;;;10379211;28;20233;-78
2022/10/19 23:48:12;;;;;;;11.60;10.33;;;14.40;99.90;;;;;;10411129;28;20210;-79
2022/10/19 23:53:14;;;;;;;11.40;10.20;;;14.40;99.90;;;;;;10382047;28;20385;-78
2022/10/19 23:58:18;;;;;;;10.33;9.53;;;14.40;99.90;;;;;;10381201;28;20198;-77
